Time;durP1;ratioP1;P1;durP2;ratioP2;P2;SDS_P1;SDS_P2;PMS_P1;PMS_P2;Temp;Humidity;BMP_temperature;BMP_pressure;BME280_temperature;BME280_humidity;BME280_pressure;Samples;Min_cycle;Max_cycle;Signal;HPM_P1;HPM_P2
2022/09/18 00:00:58;;;;;;;1.43;1.10;;;11.20;98.00;;;;;;5112316;28;20484;-65
2022/09/18 00:03:27;;;;;;;2.30;1.30;;;11.20;98.00;;;;;;5112540;28;20451;-65
2022/09/18 00:05:54;;;;;;;1.60;1.30;;;11.10;98.00;;;;;;5112332;28;20473;-65
2022/09/18 00:08:22;;;;;;;1.37;1.20;;;11.10;98.00;;;;;;5112285;28;20451;-65
2022/09/18 00:10:49;;;;;;;2.00;1.40;;;11.00;98.00;;;;;;5112443;28;20447;-65
2022/09/18 00:13:16;;;;;;;1.53;1.20;;;11.00;98.00;;;;;;5112318;28;20458;-65
2022/09/18 00:15:43;;;;;;;1.30;1.10;;;11.00;98.00;;;;;;5112622;28;20451;-65
2022/09/18 00:18:11;;;;;;;1.30;1.17;;;11.00;98.00;;;;;;5112309;28;20454;-65
2022/09/18 00:20:39;;;;;;;1.40;1.03;;;11.00;98.00;;;;;;5114164;28;20882;-65
2022/09/18 00:23:06;;;;;;;1.30;1.10;;;11.00;98.00;;;;;;5116239;28;20462;-65
2022/09/18 00:25:33;;;;;;;1.37;1.27;;;10.90;98.00;;;;;;5116499;28;20458;-65
2022/09/18 00:28:00;;;;;;;1.20;1.00;;;10.90;98.00;;;;;;5116059;28;20444;-65
2022/09/18 00:30:27;;;;;;;1.63;1.20;;;10.80;98.00;;;;;;5116221;28;20549;-65
2022/09/18 00:32:55;;;;;;;1.93;1.13;;;10.80;98.00;;;;;;5116124;28;20446;-65
2022/09/18 00:35:23;;;;;;;1.40;1.20;;;10.70;98.00;;;;;;5114746;28;20475;-65
2022/09/18 00:37:50;;;;;;;1.30;1.27;;;10.70;98.00;;;;;;5116099;28;20994;-65
2022/09/18 00:40:17;;;;;;;1.40;1.30;;;10.80;98.00;;;;;;5116259;28;20461;-65
2022/09/18 00:42:45;;;;;;;1.20;1.13;;;11.00;98.00;;;;;;5115915;28;20874;-65
2022/09/18 00:45:12;;;;;;;1.77;1.27;;;10.90;98.00;;;;;;5116070;28;20457;-65
2022/09/18 00:47:46;;;;;;;8.90;1.40;;;11.10;98.00;;;;;;5115689;28;20455;-65
2022/09/18 00:50:16;;;;;;;1.60;1.23;;;11.10;98.00;;;;;;5114701;28;20454;-65
2022/09/18 00:52:54;;;;;;;1.53;1.47;;;11.10;98.00;;;;;;5115743;28;20469;-65
2022/09/18 00:55:26;;;;;;;1.30;1.20;;;11.20;98.00;;;;;;5116008;28;20482;-65
2022/09/18 00:57:57;;;;;;;1.77;1.30;;;11.00;98.00;;;;;;5115490;28;20510;-65
2022/09/18 01:00:24;;;;;;;1.70;1.20;;;11.10;98.00;;;;;;5115619;28;20470;-65
2022/09/18 01:02:51;;;;;;;2.60;1.40;;;11.10;98.00;;;;;;5115501;28;20490;-65
2022/09/18 01:05:30;;;;;;;1.40;1.30;;;11.10;98.00;;;;;;5115038;28;20814;-65
2022/09/18 01:08:15;;;;;;;1.30;1.20;;;11.00;98.00;;;;;;5114809;28;20463;-65
2022/09/18 01:10:59;;;;;;;1.20;1.20;;;11.00;98.00;;;;;;5114833;28;20837;-65
2022/09/18 01:13:34;;;;;;;1.30;1.10;;;11.00;98.00;;;;;;5114918;28;21024;-65
2022/09/18 01:16:09;;;;;;;1.60;1.50;;;11.00;98.00;;;;;;5115758;28;20518;-65
2022/09/18 01:18:45;;;;;;;1.50;1.30;;;10.90;98.00;;;;;;5115391;28;20542;-65
2022/09/18 01:21:14;;;;;;;1.40;1.20;;;10.90;98.00;;;;;;5115191;28;20845;-65
2022/09/18 01:24:27;;;;;;;1.23;1.23;;;11.00;98.00;;;;;;5115105;28;20455;-65
2022/09/18 01:26:58;;;;;;;1.30;1.20;;;10.90;98.00;;;;;;5114924;28;20493;-65
2022/09/18 01:29:43;;;;;;;2.03;1.30;;;10.90;98.00;;;;;;5114985;28;20462;-65
2022/09/18 01:32:20;;;;;;;3.47;1.30;;;10.90;98.00;;;;;;5114371;28;20459;-65
2022/09/18 01:34:51;;;;;;;2.30;1.40;;;11.00;98.00;;;;;;5114952;28;20451;-65
2022/09/18 01:37:25;;;;;;;1.20;1.10;;;11.00;98.00;;;;;;5097337;28;20474;-65
2022/09/18 01:39:57;;;;;;;2.27;1.33;;;11.10;98.00;;;;;;5114929;28;20799;-65
2022/09/18 01:42:28;;;;;;;1.50;1.40;;;11.00;98.00;;;;;;5114984;28;20552;-65
2022/09/18 01:45:00;;;;;;;1.60;1.50;;;11.10;98.00;;;;;;5114891;28;20482;-65
2022/09/18 01:47:32;;;;;;;1.93;1.30;;;11.10;98.00;;;;;;5114600;28;20459;-65
2022/09/18 01:50:02;;;;;;;1.40;1.30;;;11.00;98.00;;;;;;5113686;28;20696;-65
2022/09/18 01:52:36;;;;;;;1.57;1.30;;;11.00;98.00;;;;;;5114817;28;20447;-65
2022/09/18 01:55:09;;;;;;;4.50;1.43;;;11.00;98.00;;;;;;5114376;28;20635;-65
2022/09/18 01:57:43;;;;;;;1.40;1.20;;;11.10;98.00;;;;;;5114609;28;20458;-65
2022/09/18 02:00:14;;;;;;;1.33;1.17;;;11.00;98.00;;;;;;5114121;27;20960;-65
2022/09/18 02:02:47;;;;;;;1.93;1.20;;;10.90;98.00;;;;;;5114276;28;20488;-65
2022/09/18 02:05:19;;;;;;;1.23;1.20;;;10.90;98.00;;;;;;5114698;27;20461;-65
2022/09/18 02:07:50;;;;;;;1.40;1.30;;;10.80;98.00;;;;;;5114298;28;20857;-65
2022/09/18 02:10:19;;;;;;;1.33;1.07;;;10.80;98.00;;;;;;5114550;28;20511;-65
2022/09/18 02:12:49;;;;;;;1.47;1.47;;;10.70;98.00;;;;;;5114211;28;20462;-65
2022/09/18 02:15:18;;;;;;;1.30;1.20;;;10.60;98.00;;;;;;5114460;28;20459;-65
2022/09/18 02:17:50;;;;;;;1.30;1.20;;;10.60;98.00;;;;;;5114168;28;20462;-65
2022/09/18 02:20:21;;;;;;;1.20;1.07;;;10.60;98.00;;;;;;5114444;28;20448;-64
2022/09/18 02:22:51;;;;;;;1.20;1.10;;;10.60;98.00;;;;;;5112531;28;20531;-65
2022/09/18 02:25:24;;;;;;;5.30;1.70;;;10.60;98.00;;;;;;5112846;28;20522;-65
2022/09/18 02:27:53;;;;;;;1.57;1.30;;;10.70;98.00;;;;;;5112421;28;20462;-65
2022/09/18 02:30:22;;;;;;;1.50;1.40;;;10.60;98.00;;;;;;5113835;28;20466;-65
2022/09/18 02:32:54;;;;;;;1.20;1.20;;;10.60;98.00;;;;;;5113515;28;20462;-65
2022/09/18 02:35:27;;;;;;;1.20;1.00;;;10.60;98.00;;;;;;5113890;28;20509;-65
2022/09/18 02:37:59;;;;;;;1.30;1.13;;;10.60;98.00;;;;;;5113591;28;20523;-65
2022/09/18 02:40:40;;;;;;;1.70;1.10;;;10.60;98.00;;;;;;5112572;28;20798;-65
2022/09/18 02:43:22;;;;;;;1.27;1.10;;;10.70;98.00;;;;;;5112975;28;20479;-65
2022/09/18 02:45:56;;;;;;;1.40;1.20;;;10.60;98.00;;;;;;5112403;28;20453;-65
2022/09/18 02:48:40;;;;;;;1.20;1.20;;;10.60;98.00;;;;;;5113548;28;20546;-65
2022/09/18 02:51:13;;;;;;;1.20;1.20;;;10.60;98.00;;;;;;5113759;28;20458;-65
2022/09/18 02:53:46;;;;;;;1.60;1.40;;;10.70;98.00;;;;;;5113570;28;20473;-65
2022/09/18 02:56:26;;;;;;;1.23;1.10;;;10.70;98.00;;;;;;5113842;28;20494;-65
2022/09/18 02:58:57;;;;;;;1.20;1.00;;;10.80;98.00;;;;;;5112143;28;20467;-65
2022/09/18 03:01:27;;;;;;;1.40;1.10;;;10.70;98.00;;;;;;5112285;28;20508;-65
2022/09/18 03:03:54;;;;;;;1.20;1.03;;;10.70;98.00;;;;;;5113363;28;20542;-65
2022/09/18 03:06:21;;;;;;;1.40;1.10;;;10.60;98.00;;;;;;5113336;28;20826;-65
2022/09/18 03:08:49;;;;;;;1.20;1.10;;;10.70;98.00;;;;;;5113166;28;20465;-64
2022/09/18 03:11:16;;;;;;;1.30;1.20;;;10.70;98.00;;;;;;5275074;22;21106;-65
2022/09/18 03:13:43;;;;;;;1.93;1.37;;;10.80;98.00;;;;;;5070730;28;20459;-65
2022/09/18 03:16:10;;;;;;;1.33;1.20;;;10.90;98.00;;;;;;5072358;28;20467;-65
2022/09/18 03:18:38;;;;;;;1.30;1.20;;;10.90;98.00;;;;;;5071694;28;20457;-65
2022/09/18 03:21:06;;;;;;;2.03;1.30;;;11.00;98.00;;;;;;5071888;28;20460;-64
2022/09/18 03:23:33;;;;;;;1.20;1.13;;;11.00;98.00;;;;;;5071526;28;20571;-65
2022/09/18 03:26:00;;;;;;;1.37;1.20;;;11.00;98.00;;;;;;5070764;28;20467;-65
2022/09/18 03:28:27;;;;;;;2.40;1.23;;;10.90;98.00;;;;;;5070508;28;20463;-65
2022/09/18 03:30:54;;;;;;;1.53;1.30;;;10.90;98.00;;;;;;5071553;28;20464;-65
2022/09/18 03:33:21;;;;;;;1.30;1.07;;;10.90;98.00;;;;;;5070100;28;20452;-65
2022/09/18 03:35:50;;;;;;;1.20;1.10;;;10.90;98.00;;;;;;5071307;28;20475;-65
2022/09/18 03:38:20;;;;;;;1.20;1.07;;;10.90;98.00;;;;;;5071225;28;20462;-65
2022/09/18 03:40:47;;;;;;;1.60;1.50;;;10.80;98.00;;;;;;5071151;28;20454;-65
2022/09/18 03:43:14;;;;;;;1.53;1.43;;;10.90;98.00;;;;;;5071228;28;20491;-65
2022/09/18 03:45:43;;;;;;;1.30;1.20;;;10.80;98.00;;;;;;5071138;28;20445;-65
2022/09/18 03:48:10;;;;;;;1.10;1.00;;;10.80;98.00;;;;;;5070015;28;20456;-65
2022/09/18 03:50:37;;;;;;;3.17;1.53;;;10.80;98.00;;;;;;5071133;28;20470;-65
2022/09/18 03:53:07;;;;;;;1.50;1.20;;;10.90;98.00;;;;;;5071059;28;20468;-65
2022/09/18 03:55:34;;;;;;;4.50;1.30;;;10.90;98.00;;;;;;5070985;28;20476;-65
2022/09/18 03:58:03;;;;;;;1.60;1.30;;;11.00;98.00;;;;;;5071043;28;20510;-65
2022/09/18 04:00:30;;;;;;;1.50;1.30;;;11.00;98.00;;;;;;5053484;28;20821;-65
2022/09/18 04:02:57;;;;;;;1.30;1.20;;;11.00;98.00;;;;;;5071076;28;20491;-64
2022/09/18 04:05:24;;;;;;;1.30;1.17;;;11.00;98.00;;;;;;5071220;28;20464;-65
2022/09/18 04:07:52;;;;;;;1.30;1.17;;;11.00;98.00;;;;;;5071009;28;20863;-65
2022/09/18 04:10:21;;;;;;;1.30;1.10;;;11.00;98.00;;;;;;5070966;28;20466;-64
2022/09/18 04:12:48;;;;;;;1.93;1.20;;;11.10;98.00;;;;;;5069793;28;20452;-65
2022/09/18 04:15:16;;;;;;;1.20;1.17;;;11.10;98.00;;;;;;5070078;28;20514;-65
2022/09/18 04:17:43;;;;;;;1.37;1.10;;;11.20;98.00;;;;;;5071053;28;20450;-65
2022/09/18 04:20:10;;;;;;;1.83;1.20;;;11.20;98.00;;;;;;5070961;28;20713;-65
2022/09/18 04:22:38;;;;;;;1.40;1.30;;;11.20;98.00;;;;;;5070929;28;20491;-65
2022/09/18 04:25:05;;;;;;;1.20;1.10;;;11.30;98.00;;;;;;5070884;28;20514;-64
2022/09/18 04:27:35;;;;;;;1.20;1.03;;;11.30;98.00;;;;;;5070676;28;20456;-65
2022/09/18 04:30:02;;;;;;;1.40;1.30;;;11.30;98.00;;;;;;5070764;28;20452;-65
2022/09/18 04:32:29;;;;;;;1.50;1.20;;;11.30;98.00;;;;;;5069702;28;20778;-65
2022/09/18 04:34:56;;;;;;;1.50;1.47;;;11.30;98.00;;;;;;5070633;28;20455;-65
2022/09/18 04:37:23;;;;;;;1.20;1.10;;;11.10;98.00;;;;;;5069387;28;20461;-65
2022/09/18 04:39:50;;;;;;;1.40;1.20;;;11.00;98.00;;;;;;5070554;28;20525;-65
2022/09/18 04:42:17;;;;;;;1.27;1.20;;;11.00;98.00;;;;;;5070805;28;20489;-65
2022/09/18 04:44:46;;;;;;;1.50;1.40;;;11.00;98.00;;;;;;5069421;28;20467;-65
2022/09/18 04:47:13;;;;;;;1.30;1.20;;;11.10;98.00;;;;;;5070562;28;20986;-65
2022/09/18 04:49:40;;;;;;;1.53;1.20;;;11.10;98.00;;;;;;5070661;28;20457;-65
2022/09/18 04:52:07;;;;;;;1.40;1.20;;;11.00;98.00;;;;;;5070515;28;20966;-65
2022/09/18 04:54:34;;;;;;;2.13;1.50;;;11.00;98.00;;;;;;5070851;28;20468;-64
2022/09/18 04:57:01;;;;;;;1.30;1.10;;;11.00;98.00;;;;;;5069169;28;20460;-65
2022/09/18 04:59:28;;;;;;;1.50;1.13;;;11.10;98.00;;;;;;5070967;28;20464;-65
2022/09/18 05:01:57;;;;;;;1.77;1.10;;;11.10;98.00;;;;;;5070533;28;20467;-64
2022/09/18 05:04:24;;;;;;;1.73;1.20;;;11.00;98.00;;;;;;5070509;28;20463;-65
2022/09/18 05:06:51;;;;;;;1.40;1.20;;;11.00;98.00;;;;;;5072341;28;20970;-65
2022/09/18 05:09:18;;;;;;;1.20;1.10;;;10.90;98.00;;;;;;5074206;28;20530;-65
2022/09/18 05:11:45;;;;;;;1.40;1.10;;;10.90;98.00;;;;;;5072728;28;20460;-65
2022/09/18 05:14:12;;;;;;;1.30;1.13;;;10.80;98.00;;;;;;5074156;28;20455;-65
2022/09/18 05:16:40;;;;;;;1.40;1.30;;;10.80;98.00;;;;;;5074184;28;20802;-65
2022/09/18 05:19:08;;;;;;;1.30;1.30;;;10.80;98.00;;;;;;5072650;28;20478;-65
2022/09/18 05:21:43;;;;;;;1.93;1.40;;;10.80;98.00;;;;;;5073899;28;20452;-65
2022/09/18 05:24:12;;;;;;;1.20;1.20;;;10.80;98.00;;;;;;5057295;28;20488;-65
2022/09/18 05:26:39;;;;;;;1.47;1.20;;;10.80;98.00;;;;;;5072611;28;20467;-65
2022/09/18 05:29:07;;;;;;;1.30;1.13;;;10.90;98.00;;;;;;5073582;28;20482;-64
2022/09/18 05:31:34;;;;;;;1.30;1.23;;;10.80;98.00;;;;;;5073721;28;20521;-65
2022/09/18 05:34:01;;;;;;;2.60;1.57;;;10.70;98.00;;;;;;5072301;28;20448;-65
2022/09/18 05:36:29;;;;;;;1.30;1.30;;;10.70;98.00;;;;;;5072391;28;20457;-64
2022/09/18 05:38:59;;;;;;;1.40;1.20;;;10.70;98.00;;;;;;5073417;28;20445;-65
2022/09/18 05:41:26;;;;;;;1.40;1.17;;;10.70;98.00;;;;;;5073528;28;20551;-65
2022/09/18 05:43:53;;;;;;;1.40;1.30;;;10.90;98.00;;;;;;5071973;28;20838;-65
2022/09/18 05:46:20;;;;;;;1.20;1.13;;;10.90;98.00;;;;;;5073508;28;20456;-65
2022/09/18 05:48:49;;;;;;;1.87;1.10;;;11.00;98.00;;;;;;5072125;28;20462;-65
2022/09/18 05:51:16;;;;;;;1.80;1.07;;;10.90;98.00;;;;;;5073454;28;20747;-65
2022/09/18 05:53:47;;;;;;;1.30;1.20;;;10.80;98.00;;;;;;5073164;28;20513;-64
2022/09/18 05:56:16;;;;;;;1.40;1.30;;;10.70;98.00;;;;;;5073218;28;20466;-65
2022/09/18 05:58:43;;;;;;;1.30;1.30;;;10.80;98.00;;;;;;5071832;28;20553;-65
2022/09/18 06:01:13;;;;;;;1.40;1.10;;;10.70;98.00;;;;;;5073341;28;20877;-64
2022/09/18 06:03:40;;;;;;;1.20;1.10;;;10.60;98.00;;;;;;5069913;28;20486;-65
2022/09/18 06:06:08;;;;;;;1.57;1.17;;;10.60;98.00;;;;;;5072933;28;20547;-65
2022/09/18 06:08:35;;;;;;;1.30;1.20;;;10.60;98.00;;;;;;5072943;28;20449;-64
2022/09/18 06:11:03;;;;;;;1.23;1.13;;;10.70;98.00;;;;;;5071759;28;20974;-65
2022/09/18 06:13:30;;;;;;;1.50;1.40;;;10.70;98.00;;;;;;5073167;28;20456;-64
2022/09/18 06:15:58;;;;;;;1.30;1.20;;;10.70;98.00;;;;;;5073008;28;20828;-65
2022/09/18 06:18:25;;;;;;;1.17;1.10;;;10.60;98.00;;;;;;5072849;28;20484;-65
2022/09/18 06:20:55;;;;;;;1.43;1.37;;;10.60;98.00;;;;;;5071529;28;20495;-65
2022/09/18 06:23:22;;;;;;;1.30;1.30;;;10.60;98.00;;;;;;5071461;28;20497;-65
2022/09/18 06:25:55;;;;;;;1.30;1.00;;;10.70;98.00;;;;;;5072687;28;20460;-65
2022/09/18 06:28:24;;;;;;;2.00;1.60;;;10.60;98.00;;;;;;5072899;28;20469;-65
2022/09/18 06:30:51;;;;;;;1.40;1.30;;;10.70;98.00;;;;;;5259312;22;20989;-65
2022/09/18 06:33:18;;;;;;;1.63;1.17;;;10.70;98.00;;;;;;5073157;28;20826;-64
2022/09/18 06:35:47;;;;;;;1.30;1.20;;;10.90;98.00;;;;;;5072340;28;20840;-64
2022/09/18 06:38:15;;;;;;;1.37;1.37;;;11.00;98.00;;;;;;5072353;28;20491;-65
2022/09/18 06:40:49;;;;;;;1.10;1.10;;;11.00;98.00;;;;;;5072256;28;20467;-65
2022/09/18 06:43:16;;;;;;;1.70;1.40;;;11.00;98.00;;;;;;5072362;28;20480;-65
2022/09/18 06:45:50;;;;;;;1.30;1.20;;;11.00;98.00;;;;;;5072192;28;20460;-65
2022/09/18 06:48:17;;;;;;;1.23;1.10;;;11.00;98.00;;;;;;5072073;28;20452;-65
2022/09/18 06:50:50;;;;;;;1.40;1.27;;;11.10;98.00;;;;;;5072149;28;20986;-65
2022/09/18 06:53:18;;;;;;;1.30;1.20;;;11.10;98.00;;;;;;5055264;28;20489;-62
2022/09/18 06:55:47;;;;;;;1.93;1.20;;;11.10;98.00;;;;;;5071890;28;20459;-62
2022/09/18 06:58:16;;;;;;;1.57;1.50;;;11.00;98.00;;;;;;5071839;28;20460;-62
2022/09/18 07:00:45;;;;;;;1.33;1.30;;;11.00;98.00;;;;;;5071930;28;20543;-62
2022/09/18 07:03:12;;;;;;;1.60;1.40;;;11.00;98.00;;;;;;5071801;28;20492;-62
2022/09/18 07:05:41;;;;;;;1.97;1.20;;;11.00;98.00;;;;;;5071966;28;20454;-61
2022/09/18 07:08:09;;;;;;;1.30;1.10;;;10.90;98.00;;;;;;5071671;28;20985;-62
2022/09/18 07:10:40;;;;;;;1.83;1.33;;;10.90;98.00;;;;;;5054498;28;20457;-62
2022/09/18 07:13:08;;;;;;;1.10;1.00;;;10.90;98.00;;;;;;5071822;28;20489;-62
2022/09/18 07:15:35;;;;;;;1.20;1.10;;;11.00;98.00;;;;;;5071826;28;20465;-61
2022/09/18 07:18:06;;;;;;;1.73;1.30;;;11.00;98.00;;;;;;5071588;28;20810;-62
2022/09/18 07:20:33;;;;;;;1.70;1.33;;;10.90;98.00;;;;;;5071810;28;20453;-62
2022/09/18 07:23:01;;;;;;;1.60;1.27;;;10.90;98.00;;;;;;5071595;28;21045;-62
2022/09/18 07:25:31;;;;;;;1.50;1.30;;;10.90;98.00;;;;;;5071479;28;20971;-62
2022/09/18 07:28:02;;;;;;;1.20;1.00;;;11.00;98.00;;;;;;5071334;28;20457;-62
2022/09/18 07:30:30;;;;;;;5.20;1.50;;;11.00;98.00;;;;;;5071003;28;20501;-62
2022/09/18 07:32:57;;;;;;;1.87;1.37;;;11.00;98.00;;;;;;5053625;28;20836;-62
2022/09/18 07:35:25;;;;;;;1.87;1.20;;;11.00;98.00;;;;;;5071418;28;20946;-62
2022/09/18 07:37:56;;;;;;;1.30;1.17;;;11.10;98.00;;;;;;5071328;28;20461;-62
2022/09/18 07:40:23;;;;;;;2.53;1.87;;;11.20;98.00;;;;;;5071312;28;20502;-62
2022/09/18 07:42:51;;;;;;;1.70;1.43;;;11.10;98.00;;;;;;5071286;28;20833;-61
2022/09/18 07:45:18;;;;;;;1.30;1.00;;;11.20;98.00;;;;;;5071387;28;20455;-61
2022/09/18 07:47:45;;;;;;;1.40;1.10;;;11.10;98.00;;;;;;5071073;28;20449;-62
2022/09/18 07:50:14;;;;;;;1.60;1.50;;;11.20;98.00;;;;;;5071298;28;20471;-61
2022/09/18 07:52:53;;;;;;;1.20;1.20;;;11.30;98.00;;;;;;5071094;28;20457;-61
2022/09/18 07:55:22;;;;;;;1.67;1.27;;;11.30;98.00;;;;;;5071224;28;20464;-62
2022/09/18 07:57:55;;;;;;;1.30;1.10;;;11.40;98.00;;;;;;5071051;28;20466;-61
2022/09/18 08:00:22;;;;;;;1.20;1.20;;;11.50;98.00;;;;;;5071271;28;20867;-62
2022/09/18 08:02:49;;;;;;;1.30;1.30;;;11.50;98.00;;;;;;5070955;28;20579;-61
2022/09/18 08:05:17;;;;;;;1.60;1.30;;;11.50;98.00;;;;;;5071099;28;20457;-61
2022/09/18 08:07:44;;;;;;;1.50;1.33;;;11.50;98.00;;;;;;5071076;28;20456;-62
2022/09/18 08:10:12;;;;;;;1.50;1.30;;;11.50;98.00;;;;;;5071388;28;20513;-62
2022/09/18 08:12:39;;;;;;;1.43;1.37;;;11.60;98.00;;;;;;5071515;28;20449;-62
2022/09/18 08:15:07;;;;;;;1.57;1.40;;;11.70;98.00;;;;;;5053747;28;20958;-62
2022/09/18 08:17:35;;;;;;;1.57;1.33;;;11.70;98.00;;;;;;5070947;28;20457;-62
2022/09/18 08:20:03;;;;;;;1.97;1.50;;;11.70;98.00;;;;;;5070949;28;21030;-62
2022/09/18 08:22:30;;;;;;;2.10;1.50;;;11.60;98.00;;;;;;5070897;28;20850;-62
2022/09/18 08:24:57;;;;;;;1.50;1.30;;;11.70;98.00;;;;;;5059944;28;20491;-63
2022/09/18 08:27:25;;;;;;;2.03;1.40;;;11.80;98.00;;;;;;5059640;28;20453;-64
2022/09/18 08:29:52;;;;;;;1.20;1.17;;;11.80;98.00;;;;;;5058960;28;20457;-64
2022/09/18 08:32:19;;;;;;;1.87;1.47;;;11.80;98.00;;;;;;5060110;28;20471;-62
2022/09/18 08:34:46;;;;;;;3.30;2.27;;;11.90;98.00;;;;;;5066955;28;20615;-63
2022/09/18 08:37:13;;;;;;;1.20;1.13;;;12.00;98.00;;;;;;5040509;28;20466;-62
2022/09/18 08:39:40;;;;;;;1.40;1.27;;;11.90;98.00;;;;;;5058360;28;20845;-62
2022/09/18 08:42:21;;;;;;;1.20;1.10;;;11.90;98.00;;;;;;5061253;28;20524;-61
2022/09/18 08:44:53;;;;;;;1.53;1.30;;;11.90;98.00;;;;;;5035546;28;20494;-62
2022/09/18 08:47:25;;;;;;;1.60;1.40;;;12.00;98.00;;;;;;5054283;28;20464;-61
2022/09/18 08:49:56;;;;;;;2.03;1.20;;;12.10;98.00;;;;;;5063720;28;20469;-61
2022/09/18 08:52:27;;;;;;;2.00;1.40;;;12.00;98.00;;;;;;5062525;28;20451;-62
2022/09/18 08:55:01;;;;;;;1.20;1.10;;;12.10;98.00;;;;;;5059633;28;20462;-63
2022/09/18 08:57:32;;;;;;;1.30;1.10;;;12.10;98.00;;;;;;5051761;28;20992;-61
2022/09/18 09:00:06;;;;;;;1.20;1.20;;;12.20;98.00;;;;;;5063276;28;20464;-61
2022/09/18 09:02:39;;;;;;;1.30;1.20;;;12.20;98.00;;;;;;5064457;28;20458;-61
2022/09/18 09:05:12;;;;;;;1.40;1.40;;;12.30;98.00;;;;;;5067025;28;20494;-61
2022/09/18 09:07:54;;;;;;;1.93;1.20;;;12.40;98.00;;;;;;5067064;28;20457;-61
2022/09/18 09:10:41;;;;;;;1.30;1.30;;;12.40;98.00;;;;;;5062059;28;20503;-61
2022/09/18 09:13:39;;;;;;;2.33;1.47;;;12.40;98.00;;;;;;5062540;28;20462;-61
2022/09/18 09:16:15;;;;;;;3.00;1.63;;;12.30;98.00;;;;;;5058485;28;20474;-61
2022/09/18 09:18:55;;;;;;;1.63;1.30;;;12.50;98.00;;;;;;5048195;28;20740;-61
2022/09/18 09:21:23;;;;;;;1.50;1.20;;;12.50;98.00;;;;;;5060860;28;20463;-61
2022/09/18 09:24:07;;;;;;;1.70;1.30;;;12.30;98.00;;;;;;5062535;28;20498;-61
2022/09/18 09:26:36;;;;;;;1.70;1.53;;;12.30;98.00;;;;;;5060066;28;20456;-60
2022/09/18 09:29:09;;;;;;;1.60;1.40;;;12.30;98.00;;;;;;5060924;28;20484;-61
2022/09/18 09:31:41;;;;;;;1.50;1.30;;;12.20;98.00;;;;;;5069285;28;20456;-62
2022/09/18 09:34:15;;;;;;;1.60;1.50;;;12.10;98.00;;;;;;5060998;28;20995;-61
2022/09/18 09:36:47;;;;;;;1.33;1.27;;;12.10;98.00;;;;;;5062289;28;20469;-61
2022/09/18 09:39:20;;;;;;;2.10;1.77;;;12.10;98.00;;;;;;5052988;28;20459;-61
2022/09/18 09:41:54;;;;;;;1.63;1.33;;;12.20;98.00;;;;;;5069386;28;20471;-61
2022/09/18 09:44:29;;;;;;;2.70;1.40;;;12.10;98.00;;;;;;5043024;28;20501;-61
2022/09/18 09:47:04;;;;;;;1.90;1.53;;;12.20;98.00;;;;;;5053229;28;20874;-61
2022/09/18 09:49:37;;;;;;;1.70;1.50;;;12.20;98.00;;;;;;5066830;28;20555;-61
2022/09/18 09:52:12;;;;;;;1.50;1.20;;;12.40;98.00;;;;;;5056186;28;20455;-61
2022/09/18 09:54:40;;;;;;;1.40;1.30;;;12.30;98.00;;;;;;5053358;28;20864;-63
2022/09/18 09:57:18;;;;;;;1.50;1.27;;;12.40;98.00;;;;;;5061407;28;20460;-61
2022/09/18 09:59:55;;;;;;;2.40;1.67;;;12.40;98.00;;;;;;5062490;28;20793;-61
2022/09/18 10:02:45;;;;;;;1.40;1.20;;;12.40;98.00;;;;;;5040274;28;20510;-61
2022/09/18 10:05:24;;;;;;;1.40;1.40;;;12.40;98.00;;;;;;5069823;28;20515;-61
2022/09/18 10:07:56;;;;;;;3.20;1.57;;;12.50;98.00;;;;;;5053064;28;20472;-61
2022/09/18 10:10:30;;;;;;;2.00;1.67;;;12.60;98.00;;;;;;5058941;28;21046;-61
2022/09/18 10:13:03;;;;;;;2.67;1.70;;;12.60;98.00;;;;;;5066938;28;20832;-61
2022/09/18 10:15:36;;;;;;;1.53;1.40;;;12.60;98.00;;;;;;5066747;28;20456;-61
2022/09/18 10:18:10;;;;;;;1.70;1.43;;;12.60;98.00;;;;;;5072478;28;20458;-61
2022/09/18 10:20:39;;;;;;;1.63;1.63;;;12.80;98.00;;;;;;5072603;28;20952;-61
2022/09/18 10:23:13;;;;;;;2.13;1.23;;;12.90;98.00;;;;;;5072872;28;20456;-61
2022/09/18 10:25:45;;;;;;;1.60;1.40;;;12.90;98.00;;;;;;5072601;28;20493;-61
2022/09/18 10:28:13;;;;;;;1.87;1.37;;;12.80;98.00;;;;;;5072803;28;20972;-61
2022/09/18 10:30:58;;;;;;;2.07;1.47;;;12.80;98.00;;;;;;5072704;28;20490;-61
2022/09/18 10:33:36;;;;;;;1.40;1.33;;;12.80;98.00;;;;;;5072839;28;20891;-61
2022/09/18 10:36:11;;;;;;;2.77;2.00;;;12.90;98.00;;;;;;5072907;28;20463;-61
2022/09/18 10:38:38;;;;;;;2.40;1.60;;;12.90;98.00;;;;;;5072522;28;20970;-61
2022/09/18 10:41:36;;;;;;;5.07;1.80;;;13.10;98.00;;;;;;5072472;28;20497;-61
2022/09/18 10:44:20;;;;;;;1.60;1.30;;;13.00;98.00;;;;;;5072164;28;20857;-61
2022/09/18 10:46:53;;;;;;;1.40;1.40;;;13.10;98.00;;;;;;5072250;28;20498;-61
2022/09/18 10:49:27;;;;;;;1.67;1.50;;;13.20;98.00;;;;;;5072127;28;20455;-60
2022/09/18 10:52:21;;;;;;;1.97;1.40;;;13.30;98.00;;;;;;5071979;28;20462;-61
2022/09/18 10:55:08;;;;;;;1.40;1.40;;;13.40;98.00;;;;;;5072134;28;20456;-61
2022/09/18 10:57:37;;;;;;;1.70;1.40;;;13.60;98.00;;;;;;5072138;28;20989;-61
2022/09/18 11:00:32;;;;;;;2.50;1.67;;;13.70;98.00;;;;;;5072008;28;20454;-61
2022/09/18 11:03:06;;;;;;;8.33;1.87;;;13.80;98.00;;;;;;5071741;28;20858;-61
2022/09/18 11:05:36;;;;;;;1.40;1.30;;;14.00;98.00;;;;;;5071620;28;20487;-61
2022/09/18 11:08:06;;;;;;;1.87;1.40;;;14.00;98.00;;;;;;5071785;28;20455;-61
2022/09/18 11:10:35;;;;;;;1.50;1.40;;;14.00;98.00;;;;;;5071848;28;20826;-61
2022/09/18 11:13:03;;;;;;;1.20;1.20;;;14.20;98.00;;;;;;5072107;28;21046;-61
2022/09/18 11:15:33;;;;;;;1.73;1.70;;;14.30;98.00;;;;;;5054222;28;20449;-61
2022/09/18 11:18:03;;;;;;;1.50;1.20;;;14.50;98.00;;;;;;5071631;28;20461;-61
2022/09/18 11:20:32;;;;;;;1.50;1.40;;;14.80;98.00;;;;;;5071661;28;20474;-61
2022/09/18 11:23:26;;;;;;;1.30;1.30;;;15.20;98.00;;;;;;5071479;28;20477;-61
2022/09/18 11:26:10;;;;;;;1.30;1.20;;;15.60;98.00;;;;;;5071510;28;20485;-61
2022/09/18 11:28:38;;;;;;;1.70;1.33;;;16.00;98.00;;;;;;5071402;28;20485;-61
2022/09/18 11:31:10;;;;;;;1.57;1.40;;;16.40;98.00;;;;;;5071325;28;20471;-61
2022/09/18 11:33:42;;;;;;;1.30;1.30;;;16.50;98.00;;;;;;5071243;28;20462;-61
2022/09/18 11:36:12;;;;;;;2.70;1.53;;;16.30;98.00;;;;;;5053540;28;20458;-61
2022/09/18 11:38:44;;;;;;;1.60;1.50;;;16.20;98.00;;;;;;5071390;28;20512;-61
2022/09/18 11:41:13;;;;;;;2.87;1.67;;;16.10;98.00;;;;;;5071609;28;20494;-62
2022/09/18 11:43:43;;;;;;;1.40;1.30;;;16.10;98.00;;;;;;5071332;28;20454;-63
2022/09/18 11:46:25;;;;;;;1.50;1.23;;;16.20;98.00;;;;;;5071373;28;20477;-63
2022/09/18 11:48:57;;;;;;;1.50;1.40;;;16.10;98.00;;;;;;5071260;28;20485;-63
2022/09/18 11:51:30;;;;;;;1.70;1.37;;;16.00;98.00;;;;;;5071379;28;20453;-62
2022/09/18 11:54:05;;;;;;;1.50;1.37;;;15.90;98.00;;;;;;5070835;28;20462;-61
2022/09/18 11:56:37;;;;;;;1.20;1.20;;;15.80;98.00;;;;;;5071342;28;20885;-62
2022/09/18 11:59:11;;;;;;;1.20;1.20;;;15.70;98.00;;;;;;5071171;28;20456;-61
2022/09/18 12:01:43;;;;;;;1.50;1.30;;;15.90;98.00;;;;;;5070870;28;20887;-62
2022/09/18 12:04:15;;;;;;;1.40;1.10;;;16.60;98.00;;;;;;5070763;28;20463;-62
2022/09/18 12:06:51;;;;;;;1.40;1.30;;;16.90;98.00;;;;;;5071192;28;20459;-62
2022/09/18 12:09:26;;;;;;;1.20;1.10;;;17.30;97.10;;;;;;5071282;28;20957;-62
2022/09/18 12:12:01;;;;;;;1.20;1.20;;;17.40;97.10;;;;;;5071389;28;20823;-62
2022/09/18 12:14:33;;;;;;;1.77;1.30;;;17.10;96.10;;;;;;5071239;28;20531;-62
2022/09/18 12:17:11;;;;;;;1.20;1.10;;;17.30;98.00;;;;;;5074880;28;20948;-62
2022/09/18 12:19:42;;;;;;;1.50;1.20;;;17.10;95.40;;;;;;5074985;28;20459;-62
2022/09/18 12:22:14;;;;;;;1.20;1.10;;;16.60;95.60;;;;;;5075120;28;20452;-63
2022/09/18 12:24:43;;;;;;;1.50;1.20;;;16.30;98.00;;;;;;5074906;28;20753;-63
2022/09/18 12:27:25;;;;;;;1.60;1.30;;;16.30;98.00;;;;;;5057168;28;20820;-62
2022/09/18 12:30:11;;;;;;;3.33;2.07;;;16.40;98.00;;;;;;5074695;28;20457;-63
2022/09/18 12:33:00;;;;;;;1.93;1.40;;;16.40;98.00;;;;;;5074734;28;20973;-62
2022/09/18 12:35:42;;;;;;;1.70;1.40;;;16.30;98.00;;;;;;5074913;28;20819;-63
2022/09/18 12:38:23;;;;;;;1.97;1.40;;;16.20;98.00;;;;;;5056851;28;20462;-63
2022/09/18 12:41:14;;;;;;;1.20;1.10;;;16.30;97.60;;;;;;5075234;28;20512;-63
2022/09/18 12:44:14;;;;;;;1.30;1.10;;;16.30;97.20;;;;;;5074968;28;20466;-64
2022/09/18 12:46:52;;;;;;;1.40;1.30;;;16.20;96.30;;;;;;5071559;28;20512;-63
2022/09/18 12:49:39;;;;;;;1.50;1.30;;;16.20;96.90;;;;;;5074448;28;20459;-63
2022/09/18 12:52:21;;;;;;;1.33;1.20;;;16.30;98.00;;;;;;5074473;28;20964;-64
2022/09/18 12:55:14;;;;;;;1.20;1.20;;;16.10;97.10;;;;;;5074354;28;20459;-64
2022/09/18 12:57:52;;;;;;;1.33;1.23;;;15.90;97.00;;;;;;5074298;28;20946;-64
2022/09/18 13:00:21;;;;;;;1.60;1.30;;;15.80;96.70;;;;;;5074390;28;20466;-63
2022/09/18 13:03:08;;;;;;;1.30;1.23;;;15.80;97.00;;;;;;5074173;28;20534;-63
2022/09/18 13:05:39;;;;;;;1.57;1.20;;;16.00;98.00;;;;;;5074169;28;20483;-62
2022/09/18 13:08:13;;;;;;;1.20;1.20;;;16.20;98.00;;;;;;5074340;28;20584;-62
2022/09/18 13:10:43;;;;;;;1.50;1.20;;;16.40;98.00;;;;;;5074386;28;20509;-63